Time;durP1;ratioP1;P1;durP2;ratioP2;P2;SDS_P1;SDS_P2;PMS_P1;PMS_P2;Temp;Humidity;BMP_temperature;BMP_pressure;BME280_temperature;BME280_humidity;BME280_pressure;Samples;Min_cycle;Max_cycle;Signal;HPM_P1;HPM_P2
2020/12/30 00:00:58;;;;;;;6.50;2.35;;;;;;;12.40;39.89;100179.81;5072259;28;20028;-75
2020/12/30 00:03:24;;;;;;;11.88;2.90;;;;;;;12.58;39.65;100174.94;5072179;28;20247;-75
2020/12/30 00:05:49;;;;;;;6.53;2.80;;;;;;;12.62;39.56;100175.03;5072064;28;20032;-77
2020/12/30 00:08:15;;;;;;;6.68;2.95;;;;;;;12.36;40.09;100180.81;5072256;28;20029;-81
2020/12/30 00:10:40;;;;;;;9.80;3.00;;;;;;;12.57;39.68;100180.75;5072164;28;20070;-75
2020/12/30 00:13:06;;;;;;;9.50;2.75;;;;;;;12.55;39.68;100183.03;5072223;28;20436;-82
2020/12/30 00:15:32;;;;;;;6.87;2.70;;;;;;;12.48;39.79;100183.59;5071992;28;20034;-75
2020/12/30 00:17:57;;;;;;;7.95;2.88;;;;;;;12.28;40.32;100181.72;5072076;28;20024;-75
2020/12/30 00:20:23;;;;;;;8.87;2.90;;;;;;;12.31;40.18;100178.28;5072044;28;20052;-82
2020/12/30 00:22:49;;;;;;;6.10;2.63;;;;;;;12.34;40.25;100186.63;5072001;28;20460;-75
2020/12/30 00:25:17;;;;;;;6.17;3.17;;;;;;;12.32;40.32;100180.69;5071919;28;20035;-75
2020/12/30 00:27:44;;;;;;;12.60;3.03;;;;;;;12.22;40.37;100181.91;5072198;28;20033;-75
2020/12/30 00:30:15;;;;;;;8.97;4.00;;;;;;;12.13;40.65;100183.13;5072159;28;20411;-76
2020/12/30 00:32:41;;;;;;;5.83;2.93;;;;;;;12.20;40.61;100172.44;5071637;28;20071;-75
2020/12/30 00:35:08;;;;;;;7.37;3.00;;;;;;;12.21;40.38;100171.28;5072153;28;20078;-75
2020/12/30 00:37:34;;;;;;;11.60;3.90;;;;;;;12.26;40.49;100164.81;5075564;28;20224;-76
2020/12/30 00:40:00;;;;;;;6.90;3.13;;;;;;;11.90;41.34;100174.47;5075497;28;20677;-76
2020/12/30 00:42:33;;;;;;;7.93;3.33;;;;;;;12.03;40.21;100167.94;5075678;28;20654;-76
2020/12/30 00:45:00;;;;;;;7.43;2.70;;;;;;;11.74;41.64;100166.06;5074567;28;20383;-75
2020/12/30 00:47:29;;;;;;;8.57;3.37;;;;;;;11.76;41.58;100168.44;5074005;28;20043;-75
2020/12/30 00:49:55;;;;;;;6.50;2.80;;;;;;;12.05;40.99;100164.84;5075414;28;20021;-75
2020/12/30 00:52:20;;;;;;;7.53;3.27;;;;;;;11.95;41.19;100168.81;5075278;28;20039;-76
2020/12/30 00:54:46;;;;;;;5.43;2.40;;;;;;;12.07;40.52;100160.63;5075430;28;20103;-82
2020/12/30 00:57:12;;;;;;;7.10;2.53;;;;;;;11.76;41.49;100155.56;5075465;28;20025;-76
2020/12/30 00:59:40;;;;;;;6.27;3.50;;;;;;;11.59;41.77;100159.25;5075217;28;20028;-75
2020/12/30 01:02:06;;;;;;;11.20;3.13;;;;;;;12.03;40.80;100156.19;5075035;28;20052;-76
2020/12/30 01:04:31;;;;;;;9.77;3.00;;;;;;;11.83;41.23;100163.28;5073858;28;20089;-76
2020/12/30 01:06:57;;;;;;;6.30;2.47;;;;;;;11.81;41.32;100165.56;5074949;28;20033;-76
2020/12/30 01:09:24;;;;;;;9.23;3.00;;;;;;;11.99;40.84;100160.72;5075009;28;20033;-76
2020/12/30 01:11:50;;;;;;;9.77;3.20;;;;;;;11.90;41.14;100153.38;5075217;28;20581;-76
2020/12/30 01:14:17;;;;;;;8.03;3.73;;;;;;;12.02;40.75;100155.38;5074885;28;20501;-76
2020/12/30 01:16:50;;;;;;;7.90;2.77;;;;;;;11.82;41.30;100153.47;5074953;28;20530;-75
2020/12/30 01:19:16;;;;;;;7.73;3.17;;;;;;;11.88;41.12;100160.34;5074679;28;20497;-75
2020/12/30 01:21:42;;;;;;;9.32;3.50;;;;;;;11.80;41.14;100158.44;5074763;28;20021;-76
2020/12/30 01:24:08;;;;;;;9.20;3.07;;;;;;;11.72;41.59;100162.84;5074640;28;20495;-76
2020/12/30 01:26:35;;;;;;;9.53;3.00;;;;;;;11.63;41.71;100157.44;5074807;28;20078;-76
2020/12/30 01:29:00;;;;;;;10.07;3.70;;;;;;;11.47;41.96;100158.38;5074518;28;20533;-75
2020/12/30 01:31:27;;;;;;;6.77;2.77;;;;;;;11.63;41.67;100160.16;5074388;28;20049;-76
2020/12/30 01:33:53;;;;;;;10.30;3.10;;;;;;;11.65;41.52;100157.91;5073321;28;20029;-75
2020/12/30 01:36:19;;;;;;;7.13;3.33;;;;;;;11.61;41.69;100162.44;5074529;28;20108;-75
2020/12/30 01:38:45;;;;;;;8.27;3.53;;;;;;;11.62;41.57;100164.03;5074526;28;20544;-77
2020/12/30 01:41:10;;;;;;;8.90;4.40;;;;;;;11.48;41.87;100163.50;5074306;28;20024;-83
2020/12/30 01:43:36;;;;;;;15.80;3.13;;;;;;;11.86;40.84;100162.59;5074708;28;20039;-76
2020/12/30 01:46:02;;;;;;;8.40;3.10;;;;;;;11.80;40.96;100167.47;5074325;28;20098;-76
2020/12/30 01:48:27;;;;;;;10.60;3.70;;;;;;;11.71;41.03;100166.69;5074321;28;20033;-76
2020/12/30 01:50:53;;;;;;;9.20;3.53;;;;;;;11.75;40.73;100169.59;5073204;28;20419;-82
2020/12/30 01:53:19;;;;;;;12.40;4.40;;;;;;;11.76;40.83;100173.91;5074181;28;20364;-84
2020/12/30 01:55:45;;;;;;;6.87;2.97;;;;;;;11.68;41.23;100168.19;5073989;28;20045;-76
2020/12/30 01:58:11;;;;;;;10.10;4.17;;;;;;;11.68;41.07;100172.84;5074097;28;20106;-75
2020/12/30 02:00:40;;;;;;;10.50;3.57;;;;;;;11.75;40.89;100178.59;5073923;28;20020;-75
2020/12/30 02:03:08;;;;;;;10.13;3.63;;;;;;;11.67;40.86;100176.72;5073962;28;20035;-76
2020/12/30 02:05:35;;;;;;;11.93;3.93;;;;;;;11.67;41.02;100174.00;5073850;28;20115;-76
2020/12/30 02:08:05;;;;;;;10.83;3.73;;;;;;;11.73;40.86;100171.88;5072660;28;20360;-82
2020/12/30 02:10:31;;;;;;;8.73;3.42;;;;;;;11.67;41.13;100176.72;5073885;28;20420;-75
2020/12/30 02:12:57;;;;;;;10.53;3.60;;;;;;;11.74;40.77;100177.00;5073755;28;20025;-75
2020/12/30 02:15:23;;;;;;;11.60;4.10;;;;;;;11.74;40.97;100173.47;5073775;28;20056;-76
2020/12/30 02:17:49;;;;;;;9.80;4.07;;;;;;;11.65;41.14;100174.34;5073827;28;20048;-76
2020/12/30 02:20:14;;;;;;;9.83;4.20;;;;;;;11.64;41.12;100170.00;5073638;28;20025;-76
2020/12/30 02:22:43;;;;;;;13.00;3.70;;;;;;;11.68;40.98;100175.59;5073562;28;20387;-83
2020/12/30 02:25:09;;;;;;;15.67;4.30;;;;;;;11.60;41.24;100171.78;5073514;28;20028;-81
2020/12/30 02:27:34;;;;;;;12.33;3.90;;;;;;;11.78;40.59;100180.66;5072069;28;20471;-75
2020/12/30 02:30:00;;;;;;;7.03;3.67;;;;;;;11.82;40.61;100167.94;5073474;28;20471;-75
2020/12/30 02:32:26;;;;;;;8.87;4.77;;;;;;;11.62;41.01;100174.97;5073091;28;20047;-76
2020/12/30 02:34:51;;;;;;;13.03;3.77;;;;;;;11.66;41.07;100175.94;5072102;28;20025;-76
2020/12/30 02:37:21;;;;;;;11.77;4.37;;;;;;;11.67;40.80;100180.25;5073374;28;20040;-77
2020/12/30 02:39:47;;;;;;;;;;;;;;;11.45;41.37;100182.53;5073663;28;20024;-82
2020/12/30 02:42:13;;;;;;;8.43;3.80;;;;;;;11.57;41.08;100188.88;5073255;28;19912;-75
2020/12/30 02:44:38;;;;;;;15.43;4.53;;;;;;;11.61;40.99;100175.31;5071945;28;20029;-75
2020/12/30 02:47:04;;;;;;;14.73;3.72;;;;;;;11.60;40.95;100182.72;5073031;28;20032;-75
2020/12/30 02:49:29;;;;;;;10.70;3.60;;;;;;;11.65;40.86;100176.28;5072992;28;20028;-75
2020/12/30 02:51:55;;;;;;;9.83;4.00;;;;;;;11.66;40.81;100175.13;5073055;28;20021;-75
2020/12/30 02:54:21;;;;;;;7.37;4.10;;;;;;;11.72;40.72;100183.94;5073314;28;20072;-75
2020/12/30 02:56:46;;;;;;;9.13;3.67;;;;;;;11.54;41.14;100175.84;5073349;28;20383;-76
2020/12/30 02:59:12;;;;;;;9.83;3.80;;;;;;;11.68;40.69;100181.06;5072785;28;20470;-77
2020/12/30 03:01:37;;;;;;;10.47;3.87;;;;;;;11.72;40.90;100178.47;5072998;28;20554;-76
2020/12/30 03:04:03;;;;;;;12.50;3.77;;;;;;;11.55;41.22;100173.91;5072866;28;20024;-75
2020/12/30 03:06:29;;;;;;;10.10;4.03;;;;;;;11.48;41.30;100163.50;5072692;28;20029;-75
2020/12/30 03:08:54;;;;;;;6.97;3.37;;;;;;;11.54;41.25;100170.38;5072768;28;20517;-75
2020/12/30 03:11:21;;;;;;;11.50;3.63;;;;;;;11.59;41.23;100170.19;5071339;28;20021;-86
2020/12/30 03:13:47;;;;;;;8.50;3.63;;;;;;;11.46;41.25;100159.50;5071512;28;20021;-75
2020/12/30 03:16:13;;;;;;;9.73;3.30;;;;;;;11.63;40.96;100168.38;5071845;28;20048;-76
2020/12/30 03:18:38;;;;;;;9.73;3.90;;;;;;;11.61;40.95;100162.44;5072607;28;20024;-75
2020/12/30 03:21:04;;;;;;;12.00;3.73;;;;;;;11.71;40.96;100163.16;5071477;28;20499;-76
2020/12/30 03:23:30;;;;;;;10.30;4.00;;;;;;;11.83;40.52;100163.28;5072897;28;20114;-75
2020/12/30 03:25:55;;;;;;;9.27;5.23;;;;;;;11.77;40.64;100165.38;5072409;28;20036;-76
2020/12/30 03:28:21;;;;;;;8.67;4.17;;;;;;;11.87;40.61;100161.47;5072005;28;20059;-84
2020/12/30 03:30:46;;;;;;;11.07;3.67;;;;;;;11.89;40.41;100156.47;5072651;28;20021;-75
2020/12/30 03:33:12;;;;;;;8.47;3.43;;;;;;;11.80;40.53;100156.53;5070629;28;20042;-75
2020/12/30 03:35:37;;;;;;;16.07;3.90;;;;;;;11.74;40.92;100166.06;5072622;28;20040;-76
2020/12/30 03:38:03;;;;;;;10.53;3.90;;;;;;;11.86;40.53;100157.94;5070938;28;20111;-75
2020/12/30 03:40:29;;;;;;;9.53;3.53;;;;;;;11.86;40.90;100154.38;5071282;28;20016;-84
2020/12/30 03:42:54;;;;;;;12.77;3.97;;;;;;;11.84;40.58;100153.91;5070959;28;20119;-78
2020/12/30 03:45:20;;;;;;;7.73;3.43;;;;;;;11.96;40.52;100158.66;5072563;28;20090;-84
2020/12/30 03:47:45;;;;;;;8.43;3.40;;;;;;;11.94;40.49;100162.53;5072484;28;20029;-75
2020/12/30 03:50:11;;;;;;;9.07;3.93;;;;;;;11.86;41.02;100166.16;5072536;28;20510;-76
2020/12/30 03:52:36;;;;;;;8.43;4.30;;;;;;;12.00;40.57;100152.16;5072470;28;20024;-76
2020/12/30 03:55:03;;;;;;;9.17;3.53;;;;;;;12.06;40.58;100156.28;5071058;28;20059;-75
2020/12/30 03:57:29;;;;;;;9.77;4.40;;;;;;;12.10;40.55;100151.75;5070976;28;20028;-75
2020/12/30 03:59:54;;;;;;;11.70;4.30;;;;;;;12.14;40.23;100152.66;5072733;28;20029;-75
2020/12/30 04:02:20;;;;;;;15.90;3.97;;;;;;;12.12;40.40;100152.22;5072433;28;20103;-75
2020/12/30 04:04:45;;;;;;;7.30;3.37;;;;;;;12.01;40.59;100153.75;5072207;28;20063;-75
2020/12/30 04:07:12;;;;;;;13.10;4.60;;;;;;;12.04;40.58;100150.34;5072199;28;20025;-76
2020/12/30 04:09:37;;;;;;;8.97;3.43;;;;;;;12.03;40.45;100146.03;5072281;28;20021;-75
2020/12/30 04:12:03;;;;;;;10.90;4.27;;;;;;;11.97;40.72;100143.81;5075607;28;20126;-75
2020/12/30 04:14:29;;;;;;;10.50;3.80;;;;;;;11.99;40.53;100150.56;5076043;28;20071;-76
2020/12/30 04:16:55;;;;;;;9.00;3.07;;;;;;;11.86;40.96;100138.78;5076238;28;20020;-76
2020/12/30 04:19:21;;;;;;;10.63;4.20;;;;;;;11.89;40.80;100143.56;5076279;28;20020;-84
2020/12/30 04:21:46;;;;;;;10.70;3.33;;;;;;;11.82;41.19;100140.56;5075972;28;20078;-75
2020/12/30 04:24:12;;;;;;;10.95;4.03;;;;;;;11.82;41.07;100142.50;5076043;28;20115;-75
2020/12/30 04:26:37;;;;;;;9.77;3.07;;;;;;;11.79;41.30;100138.50;5075797;28;20489;-76
2020/12/30 04:29:03;;;;;;;10.10;3.30;;;;;;;11.84;40.99;100138.28;5074492;28;20082;-76
2020/12/30 04:31:28;;;;;;;9.27;3.03;;;;;;;11.83;41.20;100142.16;5075940;28;20119;-76
2020/12/30 04:33:54;;;;;;;8.73;3.27;;;;;;;11.84;41.05;100126.53;5075875;28;20028;-75
2020/12/30 04:36:20;;;;;;;6.67;3.73;;;;;;;11.81;41.13;100138.97;5075735;28;20044;-76
2020/12/30 04:38:45;;;;;;;8.60;3.30;;;;;;;11.91;40.79;100127.59;5075784;28;20048;-75
2020/12/30 04:41:13;;;;;;;9.83;3.23;;;;;;;11.88;40.74;100127.50;5075610;28;20024;-85
2020/12/30 04:43:43;;;;;;;9.68;3.03;;;;;;;11.91;40.91;100135.00;5074288;28;20437;-75
2020/12/30 04:46:12;;;;;;;7.70;2.67;;;;;;;11.91;41.01;100124.88;5075537;28;20055;-76
2020/12/30 04:48:39;;;;;;;6.43;3.17;;;;;;;11.79;41.29;100126.72;5075566;28;20025;-83
2020/12/30 04:51:05;;;;;;;7.07;3.07;;;;;;;11.83;41.13;100125.75;5075544;28;20107;-75
2020/12/30 04:53:34;;;;;;;11.67;3.10;;;;;;;11.70;41.50;100126.78;5074220;28;20112;-76
2020/12/30 04:56:00;;;;;;;8.33;3.10;;;;;;;11.61;41.80;100123.34;5074154;28;20052;-76
2020/12/30 04:58:28;;;;;;;11.83;3.30;;;;;;;11.78;41.47;100122.38;5074046;28;20556;-75
2020/12/30 05:00:56;;;;;;;9.70;3.10;;;;;;;11.75;41.63;100129.34;5074128;28;20548;-76
2020/12/30 05:03:29;;;;;;;9.93;3.13;;;;;;;11.63;41.85;100130.06;5075185;28;20024;-76
2020/12/30 05:05:59;;;;;;;10.17;3.03;;;;;;;11.76;41.43;100130.13;5074086;28;20064;-76
2020/12/30 05:08:25;;;;;;;11.83;4.00;;;;;;;11.71;41.68;100133.06;5074535;28;20031;-76
2020/12/30 05:10:52;;;;;;;7.20;3.10;;;;;;;11.76;41.41;100130.13;5074972;28;20054;-83
2020/12/30 05:13:19;;;;;;;7.13;2.67;;;;;;;11.80;41.36;100129.16;5073788;28;20082;-75
2020/12/30 05:15:45;;;;;;;4.80;2.70;;;;;;;11.78;41.39;100134.13;5074956;28;20052;-75
2020/12/30 05:18:11;;;;;;;9.33;3.00;;;;;;;11.82;41.27;100135.09;5073650;28;20218;-76
2020/12/30 05:20:37;;;;;;;6.13;2.88;;;;;;;11.78;41.30;100127.84;5074913;28;20078;-75
2020/12/30 05:23:07;;;;;;;9.43;2.73;;;;;;;11.81;41.17;100127.22;5074265;28;20021;-76
2020/12/30 05:25:43;;;;;;;5.30;2.43;;;;;;;11.83;41.28;100128.47;5074831;28;20024;-83
2020/12/30 05:28:13;;;;;;;5.97;2.57;;;;;;;11.73;41.42;100139.81;5073433;28;20027;-75
2020/12/30 05:30:43;;;;;;;5.53;2.63;;;;;;;11.67;41.54;100133.75;5073450;28;20029;-76
2020/12/30 05:33:10;;;;;;;5.27;2.47;;;;;;;11.64;41.62;100137.16;5074513;28;20120;-85
2020/12/30 05:35:36;;;;;;;8.00;2.90;;;;;;;11.55;41.83;100141.88;5072965;28;20032;-76
2020/12/30 05:38:03;;;;;;;8.70;3.13;;;;;;;11.70;41.90;100134.19;5073125;28;20025;-75
2020/12/30 05:40:32;;;;;;;8.27;2.93;;;;;;;11.76;41.83;100132.88;5074648;28;20422;-77
2020/12/30 05:43:18;;;;;;;10.90;2.75;;;;;;;11.67;42.07;100135.69;5073395;28;20063;-75
2020/12/30 05:45:49;;;;;;;7.00;2.90;;;;;;;11.85;41.44;100128.94;5073953;28;20507;-78
2020/12/30 05:48:16;;;;;;;7.07;3.13;;;;;;;11.88;41.47;100124.75;5074402;28;20039;-77
2020/12/30 05:50:57;;;;;;;6.17;3.73;;;;;;;11.80;41.61;100122.88;5073095;28;20020;-76
2020/12/30 05:53:24;;;;;;;8.57;2.47;;;;;;;11.92;41.18;100122.91;5072828;28;20025;-76
2020/12/30 05:55:51;;;;;;;5.67;2.70;;;;;;;11.75;41.79;100112.91;5073051;28;20391;-76
2020/12/30 05:58:18;;;;;;;9.33;2.67;;;;;;;11.72;41.73;100124.53;5074252;28;20036;-81
2020/12/30 06:00:46;;;;;;;7.20;2.57;;;;;;;11.85;41.49;100128.13;5072996;28;20021;-75
2020/12/30 06:03:13;;;;;;;8.50;3.53;;;;;;;11.88;41.40;100116.53;5073627;28;20059;-75
2020/12/30 06:05:39;;;;;;;13.60;3.37;;;;;;;11.93;41.28;100119.84;5074029;28;20020;-75
2020/12/30 06:08:05;;;;;;;7.77;2.80;;;;;;;11.86;41.57;100116.06;5074100;28;20032;-76
2020/12/30 06:10:32;;;;;;;7.30;3.07;;;;;;;11.67;41.77;100120.06;5073919;28;20106;-75
2020/12/30 06:13:02;;;;;;;6.77;2.70;;;;;;;11.43;42.76;100116.41;5072811;28;20108;-83
2020/12/30 06:15:32;;;;;;;4.55;2.20;;;;;;;11.64;41.96;100119.94;5073838;28;20025;-84
2020/12/30 06:18:10;;;;;;;7.40;3.33;;;;;;;11.58;42.19;100129.47;5072260;28;20031;-75
2020/12/30 06:20:37;;;;;;;7.23;2.60;;;;;;;11.74;41.71;100124.19;5073724;28;20090;-76
2020/12/30 06:23:08;;;;;;;11.97;3.40;;;;;;;11.73;41.91;100126.13;5073612;28;20146;-76
2020/12/30 06:25:35;;;;;;;11.07;3.30;;;;;;;11.64;42.25;100125.41;5073408;28;20025;-78
2020/12/30 06:28:16;;;;;;;6.30;3.30;;;;;;;11.71;42.06;100122.13;5073792;28;20028;-75
2020/12/30 06:30:44;;;;;;;6.57;2.70;;;;;;;11.66;41.98;100118.47;5073648;28;20517;-85
2020/12/30 06:33:10;;;;;;;7.37;3.00;;;;;;;11.75;41.83;100120.31;5072562;28;20084;-84
2020/12/30 06:35:38;;;;;;;8.53;3.00;;;;;;;11.82;41.65;100115.94;5072383;28;20031;-82
2020/12/30 06:38:22;;;;;;;9.83;3.30;;;;;;;11.54;42.05;100123.06;5073200;28;20025;-75
2020/12/30 06:40:58;;;;;;;7.37;3.10;;;;;;;11.47;42.28;100120.88;5073283;28;20031;-75
2020/12/30 06:43:35;;;;;;;11.70;3.00;;;;;;;11.44;42.49;100116.06;5073422;28;20542;-76
2020/12/30 06:46:02;;;;;;;10.20;3.07;;;;;;;11.23;43.10;100123.47;5072165;28;20024;-76
2020/12/30 06:48:27;;;;;;;4.63;2.40;;;;;;;11.52;42.38;100126.16;5073253;28;20024;-75
2020/12/30 06:50:53;;;;;;;6.23;3.00;;;;;;;11.46;42.43;100115.72;5073255;28;20024;-83
2020/12/30 06:53:32;;;;;;;9.85;5.13;;;;;;;11.37;42.62;100121.28;5073115;28;20025;-76
2020/12/30 06:56:00;;;;;;;8.23;3.00;;;;;;;11.22;43.11;100121.84;5073278;28;20028;-76
2020/12/30 06:58:45;;;;;;;14.53;3.27;;;;;;;11.00;43.29;100126.50;5073124;28;20378;-76
2020/12/30 07:01:14;;;;;;;8.40;3.97;;;;;;;11.09;43.24;100124.50;5073077;28;20024;-75
2020/12/30 07:03:40;;;;;;;6.37;3.00;;;;;;;11.60;42.09;100129.94;5072961;28;20024;-75
2020/12/30 07:06:25;;;;;;;11.10;3.80;;;;;;;10.98;43.56;100130.69;5071528;28;20394;-76
2020/12/30 07:08:55;;;;;;;15.47;3.30;;;;;;;11.03;43.49;100142.25;5072934;28;20020;-75
2020/12/30 07:11:41;;;;;;;9.97;3.27;;;;;;;11.40;42.63;100139.75;5073196;28;20130;-85
2020/12/30 07:14:10;;;;;;;13.27;4.40;;;;;;;11.31;42.70;100141.75;5072709;28;20439;-75
2020/12/30 07:16:37;;;;;;;7.95;3.08;;;;;;;11.17;43.25;100132.97;5072476;28;20016;-76
2020/12/30 07:19:13;;;;;;;11.23;4.20;;;;;;;11.41;42.61;100135.91;5071111;28;20119;-83
2020/12/30 07:22:03;;;;;;;9.50;3.30;;;;;;;10.99;43.56;100146.75;5072984;28;20028;-76
2020/12/30 07:24:30;;;;;;;7.03;3.60;;;;;;;11.49;42.33;100148.72;5059594;28;20033;-76
2020/12/30 07:26:58;;;;;;;12.13;4.40;;;;;;;11.54;42.21;100150.44;5072348;28;20479;-75
2020/12/30 07:29:24;;;;;;;9.93;4.20;;;;;;;11.43;42.43;100155.50;5072589;28;20020;-75
2020/12/30 07:31:55;;;;;;;10.20;3.77;;;;;;;11.48;42.32;100154.50;5072245;28;20101;-75
2020/12/30 07:34:25;;;;;;;9.80;3.53;;;;;;;11.57;42.04;100167.00;5071412;28;20025;-76
2020/12/30 07:36:51;;;;;;;;;;;;;;;11.37;42.66;100159.56;5073286;28;20066;-75
2020/12/30 07:39:27;;;;;;;8.93;3.47;;;;;;;11.21;42.83;100155.81;5072601;28;19912;-75
2020/12/30 07:41:52;;;;;;;8.87;4.30;;;;;;;11.58;42.19;100167.78;5072604;28;20029;-76
2020/12/30 07:44:18;;;;;;;12.17;4.33;;;;;;;11.67;42.14;100171.25;5072938;28;20027;-75
2020/12/30 07:46:44;;;;;;;7.67;4.33;;;;;;;11.75;41.70;100167.66;5076421;28;20047;-76
2020/12/30 07:49:20;;;;;;;10.20;3.73;;;;;;;11.43;42.37;100158.25;5076524;28;20680;-76
2020/12/30 07:51:51;;;;;;;11.90;3.80;;;;;;;11.50;42.24;100155.78;5076450;28;20096;-75
2020/12/30 07:54:18;;;;;;;8.87;4.20;;;;;;;11.73;41.65;100164.44;5076398;28;20021;-76
2020/12/30 07:56:44;;;;;;;10.93;4.30;;;;;;;11.71;41.70;100161.22;5075322;28;20115;-81
2020/12/30 07:59:18;;;;;;;7.70;4.10;;;;;;;11.57;42.28;100167.00;5076339;28;20025;-81
2020/12/30 08:02:01;;;;;;;9.47;5.23;;;;;;;11.34;42.47;100157.50;5076577;28;20463;-76
2020/12/30 08:04:29;;;;;;;12.63;5.23;;;;;;;11.57;42.14;100156.03;5075008;28;20434;-75
2020/12/30 08:06:55;;;;;;;11.63;4.40;;;;;;;11.73;41.77;100163.66;5074578;28;20127;-76
2020/12/30 08:09:26;;;;;;;12.63;4.10;;;;;;;11.57;41.99;100156.03;5076193;28;20032;-75
2020/12/30 08:11:54;;;;;;;10.23;4.37;;;;;;;11.58;42.31;100159.59;5076326;28;20059;-75
2020/12/30 08:14:22;;;;;;;12.47;4.60;;;;;;;11.29;42.80;100157.69;5074900;28;20052;-76
2020/12/30 08:16:55;;;;;;;11.47;4.00;;;;;;;11.64;42.21;100161.00;5074939;28;20105;-75
2020/12/30 08:19:31;;;;;;;12.40;4.90;;;;;;;11.32;42.73;100162.47;5076335;28;20483;-75
2020/12/30 08:22:02;;;;;;;13.20;4.10;;;;;;;11.40;42.87;100167.09;5076073;28;20406;-83
2020/12/30 08:24:40;;;;;;;12.80;4.53;;;;;;;11.49;42.32;100175.25;5075826;28;20415;-74
2020/12/30 08:27:07;;;;;;;10.63;4.40;;;;;;;11.63;41.98;100179.31;5074833;28;20033;-75
2020/12/30 08:29:35;;;;;;;11.40;4.30;;;;;;;11.58;42.29;100174.06;5074630;28;20391;-74
2020/12/30 08:32:04;;;;;;;13.00;6.07;;;;;;;11.25;43.27;100176.69;5073925;28;20052;-75
2020/12/30 08:34:38;;;;;;;10.83;4.33;;;;;;;11.42;42.73;100175.78;5075762;28;20056;-75
2020/12/30 08:37:11;;;;;;;12.40;5.13;;;;;;;11.15;43.36;100181.75;5075736;28;20548;-75
2020/12/30 08:39:43;;;;;;;11.47;4.27;;;;;;;11.25;42.90;100181.34;5080817;28;20032;-77
2020/12/30 08:42:37;;;;;;;12.73;5.93;;;;;;;11.18;42.98;100176.41;5097224;28;20085;-84
2020/12/30 08:45:04;;;;;;;15.90;5.57;;;;;;;11.20;43.20;100178.81;5078406;28;20051;-85
2020/12/30 08:47:38;;;;;;;10.07;4.83;;;;;;;11.46;42.49;100175.91;5095354;28;20118;-86
2020/12/30 08:50:08;;;;;;;9.50;5.23;;;;;;;11.48;42.35;100179.91;5096657;28;20116;-83
2020/12/30 08:52:43;;;;;;;11.07;6.00;;;;;;;11.39;42.70;100190.13;5094631;28;20028;-76
2020/12/30 08:55:10;;;;;;;16.60;5.60;;;;;;;11.57;42.24;100188.09;5095734;28;20028;-76
2020/12/30 08:57:43;;;;;;;14.23;5.57;;;;;;;11.44;42.51;100195.41;5095421;28;20020;-84
2020/12/30 09:00:23;;;;;;;10.43;4.87;;;;;;;11.48;42.48;100206.47;5095745;28;20494;-76
2020/12/30 09:02:51;;;;;;;11.38;5.25;;;;;;;11.45;42.41;100205.22;5095695;28;20027;-76
2020/12/30 09:05:30;;;;;;;9.53;4.63;;;;;;;11.18;43.29;100205.69;5095765;28;20024;-77
2020/12/30 09:08:12;;;;;;;13.60;4.82;;;;;;;11.19;43.05;100210.03;5095641;28;20115;-76
2020/12/30 09:10:38;;;;;;;11.97;4.50;;;;;;;11.23;43.18;100200.03;5095423;28;20054;-75
2020/12/30 09:13:14;;;;;;;10.93;5.37;;;;;;;11.30;42.95;100209.31;5095468;28;20456;-75
2020/12/30 09:15:41;;;;;;;15.20;5.40;;;;;;;11.31;42.88;100213.66;5095278;28;20027;-75
2020/12/30 09:18:09;;;;;;;10.20;5.67;;;;;;;11.44;42.59;100211.81;5095422;28;20051;-75
2020/12/30 09:20:34;;;;;;;11.57;4.60;;;;;;;11.51;42.43;100209.34;5095585;28;20024;-76
2020/12/30 09:23:01;;;;;;;12.30;4.70;;;;;;;11.56;42.45;100219.28;5095362;28;20016;-76
2020/12/30 09:25:29;;;;;;;11.63;4.93;;;;;;;11.44;42.52;100214.56;5095190;28;20024;-84
2020/12/30 09:27:56;;;;;;;8.73;4.53;;;;;;;11.22;43.45;100206.63;5095418;28;20028;-76
2020/12/30 09:30:26;;;;;;;11.50;5.17;;;;;;;11.44;42.85;100206.34;5093893;28;20020;-75
2020/12/30 09:35:34;;;;;;;13.57;4.77;;;;;;;11.56;42.43;100213.81;5362557;22;20049;-73
2020/12/30 09:37:59;;;;;;;12.93;5.67;;;;;;;11.79;42.12;100220.59;5056119;28;20036;-74
2020/12/30 09:40:26;;;;;;;12.63;5.80;;;;;;;11.57;42.61;100213.50;5074347;28;20416;-72
2020/12/30 09:43:06;;;;;;;14.03;5.67;;;;;;;11.81;41.90;100214.81;5074248;28;20474;-72
2020/12/30 09:45:32;;;;;;;8.88;5.40;;;;;;;11.85;41.96;100216.53;5074438;28;20033;-73
2020/12/30 09:48:10;;;;;;;15.23;7.75;;;;;;;11.83;42.12;100218.81;5074154;28;20082;-76
2020/12/30 09:50:37;;;;;;;15.57;7.57;;;;;;;11.82;41.72;100221.88;5061077;28;20088;-75
2020/12/30 09:53:03;;;;;;;17.50;8.53;;;;;;;11.98;41.69;100220.16;5104982;28;20034;-79
2020/12/30 09:55:28;;;;;;;27.73;9.33;;;;;;;12.00;41.83;100220.59;5114325;28;20028;-75
2020/12/30 09:57:54;;;;;;;14.87;8.97;;;;;;;12.03;41.65;100228.16;5114536;28;20020;-73
2020/12/30 10:00:19;;;;;;;16.43;8.37;;;;;;;12.03;41.81;100233.66;5114248;28;20076;-74
2020/12/30 10:02:48;;;;;;;12.97;6.87;;;;;;;11.99;41.86;100234.63;5114323;28;20038;-83
2020/12/30 10:05:14;;;;;;;16.60;8.70;;;;;;;12.13;41.49;100241.44;5113627;28;20023;-79
2020/12/30 10:07:39;;;;;;;10.87;7.67;;;;;;;11.90;42.09;100238.25;5095269;28;20054;-75
2020/12/30 10:10:05;;;;;;;10.83;6.93;;;;;;;12.11;41.68;100237.44;5113911;28;20155;-76
2020/12/30 10:12:30;;;;;;;19.30;12.33;;;;;;;12.07;41.79;100233.75;5096018;28;20099;-74
2020/12/30 10:14:56;;;;;;;13.83;6.07;;;;;;;12.10;41.70;100238.59;5095893;28;20024;-74
2020/12/30 10:17:22;;;;;;;15.40;9.30;;;;;;;12.12;41.65;100244.53;5114172;28;20362;-80
2020/12/30 10:19:48;;;;;;;28.57;18.13;;;;;;;12.10;41.47;100242.13;5095025;28;20023;-80
2020/12/30 10:22:14;;;;;;;51.33;32.25;;;;;;;12.17;41.47;100241.59;5114000;28;20092;-73
2020/12/30 10:24:48;;;;;;;59.50;38.13;;;;;;;12.06;42.00;100235.69;5113902;28;20023;-74
2020/12/30 10:27:14;;;;;;;11.35;7.50;;;;;;;12.21;41.66;100235.09;5095659;28;20028;-73
2020/12/30 10:29:40;;;;;;;25.37;20.90;;;;;;;12.22;41.49;100236.69;5113943;28;20028;-74
2020/12/30 10:32:06;;;;;;;18.07;11.13;;;;;;;12.28;41.56;100247.44;5114296;28;20027;-74
2020/12/30 10:34:32;;;;;;;12.43;8.30;;;;;;;12.25;41.63;100245.38;5113079;28;20058;-75
2020/12/30 10:36:58;;;;;;;15.00;8.27;;;;;;;12.29;41.53;100232.59;5113953;28;20028;-75
2020/12/30 10:39:24;;;;;;;23.77;17.07;;;;;;;12.33;41.51;100242.56;5113403;28;20080;-75
2020/12/30 10:41:54;;;;;;;13.13;7.53;;;;;;;12.31;41.59;100244.03;5113552;28;20032;-73
2020/12/30 10:44:19;;;;;;;11.73;7.60;;;;;;;12.29;41.76;100247.09;5095538;28;20031;-74
2020/12/30 10:46:48;;;;;;;8.15;6.13;;;;;;;12.43;41.19;100246.81;5113375;28;20477;-75
2020/12/30 10:49:14;;;;;;;15.63;5.83;;;;;;;12.45;41.23;100250.81;5113084;28;20110;-84
2020/12/30 10:51:40;;;;;;;13.67;8.20;;;;;;;12.59;41.14;100252.47;5113670;28;20099;-74
2020/12/30 10:54:06;;;;;;;9.40;5.47;;;;;;;12.27;41.92;100243.91;5105040;28;20032;-76
2020/12/30 10:56:31;;;;;;;12.10;6.03;;;;;;;12.45;41.43;100256.28;5081716;28;20028;-75
2020/12/30 10:58:57;;;;;;;14.03;7.23;;;;;;;12.32;41.61;100251.09;5065640;28;20026;-76
2020/12/30 11:01:22;;;;;;;14.82;6.68;;;;;;;12.36;41.76;100225.44;5083553;28;20043;-78
2020/12/30 11:03:48;;;;;;;11.63;5.53;;;;;;;12.49;41.43;100237.25;5079598;28;20099;-83
2020/12/30 11:06:14;;;;;;;10.82;5.43;;;;;;;12.38;41.49;100234.13;5071013;28;20036;-75
2020/12/30 11:08:39;;;;;;;10.87;5.30;;;;;;;12.46;41.54;100230.50;5071874;28;20035;-77
2020/12/30 11:11:06;;;;;;;11.53;6.23;;;;;;;12.47;41.57;100237.59;5071777;28;20116;-78
2020/12/30 11:13:32;;;;;;;10.63;5.53;;;;;;;12.15;42.33;100241.91;5105871;28;20031;-81
2020/12/30 11:15:58;;;;;;;11.00;5.67;;;;;;;12.23;42.40;100245.69;5104378;28;20121;-88
2020/12/30 11:18:23;;;;;;;10.13;5.50;;;;;;;12.26;41.96;100236.03;5098909;28;20030;-85
2020/12/30 11:20:49;;;;;;;11.30;4.80;;;;;;;12.32;41.90;100238.22;5083061;28;20110;-77
2020/12/30 11:23:16;;;;;;;15.95;6.72;;;;;;;12.42;41.40;100242.47;5095803;28;20026;-87
2020/12/30 11:25:45;;;;;;;11.40;5.28;;;;;;;12.30;41.72;100247.91;5106495;28;20024;-76
2020/12/30 11:28:13;;;;;;;15.35;5.80;;;;;;;12.08;42.67;100247.13;5092815;28;20012;-91